sensor_id;sensor_type;location;lat;lon;timestamp;P1;durP1;ratioP1;P2;durP2;ratioP2
65855;SDS011;52631;42.208;24.656;2023-04-16T00:01:57;3.35;;;1.30;;
65855;SDS011;52631;42.208;24.656;2023-04-16T00:04:22;3.60;;;1.45;;
65855;SDS011;52631;42.208;24.656;2023-04-16T00:06:48;4.43;;;1.83;;
65855;SDS011;52631;42.208;24.656;2023-04-16T00:09:13;3.88;;;1.42;;
65855;SDS011;52631;42.208;24.656;2023-04-16T00:11:38;3.58;;;1.38;;
65855;SDS011;52631;42.208;24.656;2023-04-16T00:14:04;4.97;;;1.50;;
65855;SDS011;52631;42.208;24.656;2023-04-16T00:16:29;3.60;;;1.48;;
65855;SDS011;52631;42.208;24.656;2023-04-16T00:18:55;3.75;;;1.40;;
65855;SDS011;52631;42.208;24.656;2023-04-16T00:21:20;4.85;;;1.35;;
65855;SDS011;52631;42.208;24.656;2023-04-16T00:23:46;3.70;;;1.55;;
65855;SDS011;52631;42.208;24.656;2023-04-16T00:26:11;5.22;;;1.70;;
65855;SDS011;52631;42.208;24.656;2023-04-16T00:28:37;5.47;;;1.58;;
65855;SDS011;52631;42.208;24.656;2023-04-16T00:31:02;4.30;;;1.58;;
65855;SDS011;52631;42.208;24.656;2023-04-16T00:33:28;6.55;;;1.80;;
65855;SDS011;52631;42.208;24.656;2023-04-16T00:35:54;6.70;;;2.42;;
65855;SDS011;52631;42.208;24.656;2023-04-16T00:38:20;6.90;;;2.15;;
65855;SDS011;52631;42.208;24.656;2023-04-16T00:40:45;5.03;;;1.70;;
65855;SDS011;52631;42.208;24.656;2023-04-16T00:43:11;3.35;;;1.55;;
65855;SDS011;52631;42.208;24.656;2023-04-16T00:45:36;6.90;;;1.50;;
65855;SDS011;52631;42.208;24.656;2023-04-16T00:48:01;4.93;;;1.50;;
65855;SDS011;52631;42.208;24.656;2023-04-16T00:50:28;3.58;;;1.17;;
65855;SDS011;52631;42.208;24.656;2023-04-16T00:52:53;7.38;;;1.48;;
65855;SDS011;52631;42.208;24.656;2023-04-16T00:55:19;4.55;;;1.90;;
65855;SDS011;52631;42.208;24.656;2023-04-16T00:57:45;3.50;;;1.63;;
65855;SDS011;52631;42.208;24.656;2023-04-16T01:00:10;4.95;;;1.60;;
65855;SDS011;52631;42.208;24.656;2023-04-16T01:02:36;5.55;;;2.40;;
65855;SDS011;52631;42.208;24.656;2023-04-16T01:05:03;5.35;;;1.92;;
65855;SDS011;52631;42.208;24.656;2023-04-16T01:07:28;5.75;;;2.50;;
65855;SDS011;52631;42.208;24.656;2023-04-16T01:09:54;7.40;;;1.88;;
65855;SDS011;52631;42.208;24.656;2023-04-16T01:12:20;5.65;;;1.70;;
65855;SDS011;52631;42.208;24.656;2023-04-16T01:14:46;8.75;;;2.28;;
65855;SDS011;52631;42.208;24.656;2023-04-16T01:17:11;4.50;;;1.90;;
65855;SDS011;52631;42.208;24.656;2023-04-16T01:19:37;3.47;;;1.70;;
65855;SDS011;52631;42.208;24.656;2023-04-16T01:22:03;6.43;;;1.98;;
65855;SDS011;52631;42.208;24.656;2023-04-16T01:24:29;3.70;;;1.85;;
65855;SDS011;52631;42.208;24.656;2023-04-16T01:26:56;6.32;;;2.03;;
65855;SDS011;52631;42.208;24.656;2023-04-16T01:29:25;3.83;;;1.95;;
65855;SDS011;52631;42.208;24.656;2023-04-16T01:31:50;5.78;;;1.70;;
65855;SDS011;52631;42.208;24.656;2023-04-16T01:34:16;5.00;;;1.77;;
65855;SDS011;52631;42.208;24.656;2023-04-16T01:36:42;4.47;;;1.80;;
65855;SDS011;52631;42.208;24.656;2023-04-16T01:39:07;5.05;;;2.00;;
65855;SDS011;52631;42.208;24.656;2023-04-16T01:41:38;8.57;;;2.00;;
65855;SDS011;52631;42.208;24.656;2023-04-16T01:44:04;5.65;;;1.70;;
65855;SDS011;52631;42.208;24.656;2023-04-16T01:46:30;5.13;;;2.10;;
65855;SDS011;52631;42.208;24.656;2023-04-16T01:48:56;3.90;;;1.90;;
65855;SDS011;52631;42.208;24.656;2023-04-16T01:51:22;12.38;;;7.68;;
65855;SDS011;52631;42.208;24.656;2023-04-16T01:53:48;11.80;;;6.53;;
65855;SDS011;52631;42.208;24.656;2023-04-16T01:56:14;20.23;;;9.68;;
65855;SDS011;52631;42.208;24.656;2023-04-16T01:58:40;4.90;;;2.45;;
65855;SDS011;52631;42.208;24.656;2023-04-16T02:01:06;6.47;;;2.28;;
65855;SDS011;52631;42.208;24.656;2023-04-16T02:03:32;5.28;;;2.10;;
65855;SDS011;52631;42.208;24.656;2023-04-16T02:05:58;5.80;;;2.20;;
65855;SDS011;52631;42.208;24.656;2023-04-16T02:08:23;5.43;;;2.28;;
65855;SDS011;52631;42.208;24.656;2023-04-16T02:10:49;5.93;;;2.28;;
65855;SDS011;52631;42.208;24.656;2023-04-16T02:13:15;4.78;;;1.92;;
65855;SDS011;52631;42.208;24.656;2023-04-16T02:15:44;5.20;;;1.83;;
65855;SDS011;52631;42.208;24.656;2023-04-16T02:18:11;5.35;;;2.08;;
65855;SDS011;52631;42.208;24.656;2023-04-16T02:20:38;5.53;;;2.17;;
65855;SDS011;52631;42.208;24.656;2023-04-16T02:23:05;8.05;;;2.85;;
65855;SDS011;52631;42.208;24.656;2023-04-16T02:25:30;7.55;;;2.70;;
65855;SDS011;52631;42.208;24.656;2023-04-16T02:27:56;5.93;;;2.58;;
65855;SDS011;52631;42.208;24.656;2023-04-16T02:30:22;5.00;;;2.80;;
65855;SDS011;52631;42.208;24.656;2023-04-16T02:32:48;7.10;;;2.80;;
65855;SDS011;52631;42.208;24.656;2023-04-16T02:35:14;7.28;;;3.80;;
65855;SDS011;52631;42.208;24.656;2023-04-16T02:37:39;7.10;;;3.15;;
65855;SDS011;52631;42.208;24.656;2023-04-16T02:40:05;7.22;;;3.10;;
65855;SDS011;52631;42.208;24.656;2023-04-16T02:42:31;11.77;;;4.63;;
65855;SDS011;52631;42.208;24.656;2023-04-16T02:44:56;6.57;;;2.80;;
65855;SDS011;52631;42.208;24.656;2023-04-16T02:47:22;22.25;;;8.32;;
65855;SDS011;52631;42.208;24.656;2023-04-16T02:49:47;29.35;;;13.75;;
65855;SDS011;52631;42.208;24.656;2023-04-16T02:52:12;10.88;;;4.80;;
65855;SDS011;52631;42.208;24.656;2023-04-16T02:54:38;7.00;;;3.00;;
65855;SDS011;52631;42.208;24.656;2023-04-16T02:57:03;5.78;;;2.67;;
65855;SDS011;52631;42.208;24.656;2023-04-16T02:59:30;5.05;;;2.15;;
65855;SDS011;52631;42.208;24.656;2023-04-16T03:01:55;5.65;;;2.30;;
65855;SDS011;52631;42.208;24.656;2023-04-16T03:04:21;4.30;;;1.98;;
65855;SDS011;52631;42.208;24.656;2023-04-16T03:06:46;4.78;;;3.22;;
65855;SDS011;52631;42.208;24.656;2023-04-16T03:09:12;8.13;;;2.47;;
65855;SDS011;52631;42.208;24.656;2023-04-16T03:11:37;6.32;;;2.33;;
65855;SDS011;52631;42.208;24.656;2023-04-16T03:14:03;3.67;;;1.90;;
65855;SDS011;52631;42.208;24.656;2023-04-16T03:16:28;5.18;;;2.40;;
65855;SDS011;52631;42.208;24.656;2023-04-16T03:18:54;11.95;;;3.75;;
65855;SDS011;52631;42.208;24.656;2023-04-16T03:21:19;11.95;;;5.28;;
65855;SDS011;52631;42.208;24.656;2023-04-16T03:23:45;13.27;;;5.30;;
65855;SDS011;52631;42.208;24.656;2023-04-16T03:26:11;10.68;;;4.78;;
65855;SDS011;52631;42.208;24.656;2023-04-16T03:28:36;8.85;;;4.03;;
65855;SDS011;52631;42.208;24.656;2023-04-16T03:31:02;9.65;;;3.80;;
65855;SDS011;52631;42.208;24.656;2023-04-16T03:33:27;5.15;;;2.95;;
65855;SDS011;52631;42.208;24.656;2023-04-16T03:35:56;6.70;;;2.60;;
65855;SDS011;52631;42.208;24.656;2023-04-16T03:38:22;5.85;;;2.40;;
65855;SDS011;52631;42.208;24.656;2023-04-16T03:40:49;5.40;;;2.38;;
65855;SDS011;52631;42.208;24.656;2023-04-16T03:43:15;4.10;;;2.22;;
65855;SDS011;52631;42.208;24.656;2023-04-16T03:45:44;6.32;;;2.25;;
65855;SDS011;52631;42.208;24.656;2023-04-16T03:48:10;5.28;;;2.38;;
65855;SDS011;52631;42.208;24.656;2023-04-16T03:50:35;5.53;;;2.45;;
65855;SDS011;52631;42.208;24.656;2023-04-16T03:53:00;6.00;;;2.10;;
65855;SDS011;52631;42.208;24.656;2023-04-16T03:55:27;10.27;;;7.10;;
65855;SDS011;52631;42.208;24.656;2023-04-16T03:57:52;7.47;;;4.75;;
65855;SDS011;52631;42.208;24.656;2023-04-16T04:00:18;6.95;;;2.90;;
65855;SDS011;52631;42.208;24.656;2023-04-16T04:02:43;8.13;;;2.70;;
65855;SDS011;52631;42.208;24.656;2023-04-16T04:05:09;4.38;;;2.60;;
65855;SDS011;52631;42.208;24.656;2023-04-16T04:07:35;7.97;;;3.25;;
65855;SDS011;52631;42.208;24.656;2023-04-16T04:10:00;6.40;;;3.65;;
65855;SDS011;52631;42.208;24.656;2023-04-16T04:12:25;9.95;;;3.53;;
65855;SDS011;52631;42.208;24.656;2023-04-16T04:14:51;8.25;;;3.67;;
65855;SDS011;52631;42.208;24.656;2023-04-16T04:17:17;8.48;;;3.70;;
65855;SDS011;52631;42.208;24.656;2023-04-16T04:19:42;7.47;;;4.38;;
65855;SDS011;52631;42.208;24.656;2023-04-16T04:22:07;8.00;;;4.25;;
65855;SDS011;52631;42.208;24.656;2023-04-16T04:24:33;8.48;;;4.38;;
65855;SDS011;52631;42.208;24.656;2023-04-16T04:26:58;7.82;;;4.30;;
65855;SDS011;52631;42.208;24.656;2023-04-16T04:29:24;11.63;;;4.28;;
65855;SDS011;52631;42.208;24.656;2023-04-16T04:31:49;9.38;;;4.65;;
65855;SDS011;52631;42.208;24.656;2023-04-16T04:34:15;8.80;;;4.32;;
65855;SDS011;52631;42.208;24.656;2023-04-16T04:36:40;10.45;;;3.85;;
65855;SDS011;52631;42.208;24.656;2023-04-16T04:39:06;9.52;;;4.85;;
65855;SDS011;52631;42.208;24.656;2023-04-16T04:41:31;12.85;;;5.93;;
65855;SDS011;52631;42.208;24.656;2023-04-16T04:43:57;15.77;;;7.78;;
65855;SDS011;52631;42.208;24.656;2023-04-16T04:46:22;10.20;;;6.93;;
65855;SDS011;52631;42.208;24.656;2023-04-16T04:48:48;13.68;;;6.50;;
65855;SDS011;52631;42.208;24.656;2023-04-16T04:51:14;13.48;;;7.13;;
65855;SDS011;52631;42.208;24.656;2023-04-16T04:53:39;10.13;;;5.30;;
65855;SDS011;52631;42.208;24.656;2023-04-16T04:56:05;13.77;;;6.97;;
65855;SDS011;52631;42.208;24.656;2023-04-16T04:58:30;13.23;;;7.60;;
65855;SDS011;52631;42.208;24.656;2023-04-16T05:00:56;9.43;;;5.15;;
65855;SDS011;52631;42.208;24.656;2023-04-16T05:03:21;9.57;;;4.63;;
65855;SDS011;52631;42.208;24.656;2023-04-16T05:05:47;10.90;;;5.88;;
65855;SDS011;52631;42.208;24.656;2023-04-16T05:08:12;8.77;;;5.28;;
65855;SDS011;52631;42.208;24.656;2023-04-16T05:10:37;8.65;;;4.30;;
65855;SDS011;52631;42.208;24.656;2023-04-16T05:13:03;7.85;;;4.00;;
65855;SDS011;52631;42.208;24.656;2023-04-16T05:15:28;8.63;;;4.10;;
65855;SDS011;52631;42.208;24.656;2023-04-16T05:17:54;10.63;;;4.90;;
65855;SDS011;52631;42.208;24.656;2023-04-16T05:20:21;7.22;;;4.50;;
65855;SDS011;52631;42.208;24.656;2023-04-16T05:22:48;8.85;;;3.63;;
65855;SDS011;52631;42.208;24.656;2023-04-16T05:25:17;10.07;;;4.70;;
65855;SDS011;52631;42.208;24.656;2023-04-16T05:27:42;9.52;;;4.80;;
65855;SDS011;52631;42.208;24.656;2023-04-16T05:30:08;8.45;;;4.40;;
65855;SDS011;52631;42.208;24.656;2023-04-16T05:32:34;5.10;;;2.80;;
65855;SDS011;52631;42.208;24.656;2023-04-16T05:34:59;5.47;;;3.20;;
65855;SDS011;52631;42.208;24.656;2023-04-16T05:37:25;8.77;;;2.95;;
65855;SDS011;52631;42.208;24.656;2023-04-16T05:39:50;12.15;;;3.80;;
65855;SDS011;52631;42.208;24.656;2023-04-16T05:42:15;5.80;;;3.05;;
65855;SDS011;52631;42.208;24.656;2023-04-16T05:44:41;5.95;;;3.40;;
65855;SDS011;52631;42.208;24.656;2023-04-16T05:47:06;6.43;;;3.80;;
65855;SDS011;52631;42.208;24.656;2023-04-16T05:49:34;9.82;;;4.72;;
65855;SDS011;52631;42.208;24.656;2023-04-16T05:52:02;7.03;;;4.45;;
65855;SDS011;52631;42.208;24.656;2023-04-16T05:54:28;14.15;;;6.45;;
65855;SDS011;52631;42.208;24.656;2023-04-16T05:56:53;10.77;;;6.10;;
65855;SDS011;52631;42.208;24.656;2023-04-16T05:59:19;13.95;;;5.75;;
65855;SDS011;52631;42.208;24.656;2023-04-16T06:01:44;7.45;;;3.65;;
65855;SDS011;52631;42.208;24.656;2023-04-16T06:04:10;8.07;;;3.25;;
65855;SDS011;52631;42.208;24.656;2023-04-16T06:06:35;8.60;;;3.67;;
65855;SDS011;52631;42.208;24.656;2023-04-16T06:09:01;51.35;;;22.60;;
65855;SDS011;52631;42.208;24.656;2023-04-16T06:11:28;51.60;;;22.25;;
65855;SDS011;52631;42.208;24.656;2023-04-16T06:13:54;6.47;;;3.00;;
65855;SDS011;52631;42.208;24.656;2023-04-16T06:16:19;6.88;;;2.78;;
65855;SDS011;52631;42.208;24.656;2023-04-16T06:18:45;4.93;;;2.45;;
65855;SDS011;52631;42.208;24.656;2023-04-16T06:21:10;4.80;;;2.63;;
65855;SDS011;52631;42.208;24.656;2023-04-16T06:23:36;4.68;;;2.70;;
65855;SDS011;52631;42.208;24.656;2023-04-16T06:26:01;5.32;;;2.35;;
65855;SDS011;52631;42.208;24.656;2023-04-16T06:28:27;5.90;;;2.25;;
65855;SDS011;52631;42.208;24.656;2023-04-16T06:30:52;6.30;;;2.08;;
65855;SDS011;52631;42.208;24.656;2023-04-16T06:33:17;6.05;;;2.45;;
65855;SDS011;52631;42.208;24.656;2023-04-16T06:35:43;6.68;;;2.50;;
65855;SDS011;52631;42.208;24.656;2023-04-16T06:38:08;4.80;;;2.38;;
65855;SDS011;52631;42.208;24.656;2023-04-16T06:40:34;6.25;;;3.13;;
65855;SDS011;52631;42.208;24.656;2023-04-16T06:43:01;7.03;;;2.53;;
65855;SDS011;52631;42.208;24.656;2023-04-16T06:45:27;7.45;;;2.80;;
65855;SDS011;52631;42.208;24.656;2023-04-16T06:47:52;5.78;;;2.78;;
65855;SDS011;52631;42.208;24.656;2023-04-16T06:50:18;5.70;;;2.80;;
65855;SDS011;52631;42.208;24.656;2023-04-16T06:52:43;5.55;;;2.47;;
65855;SDS011;52631;42.208;24.656;2023-04-16T06:55:09;6.90;;;2.33;;
65855;SDS011;52631;42.208;24.656;2023-04-16T06:57:35;9.75;;;2.70;;
65855;SDS011;52631;42.208;24.656;2023-04-16T07:00:01;8.68;;;2.63;;
65855;SDS011;52631;42.208;24.656;2023-04-16T07:02:29;6.57;;;2.50;;
65855;SDS011;52631;42.208;24.656;2023-04-16T07:04:56;11.13;;;3.00;;
65855;SDS011;52631;42.208;24.656;2023-04-16T07:07:23;7.57;;;3.13;;
65855;SDS011;52631;42.208;24.656;2023-04-16T07:09:49;7.43;;;2.58;;
65855;SDS011;52631;42.208;24.656;2023-04-16T07:12:14;7.72;;;2.65;;
65855;SDS011;52631;42.208;24.656;2023-04-16T07:14:40;8.48;;;2.70;;
65855;SDS011;52631;42.208;24.656;2023-04-16T07:17:05;8.75;;;3.00;;
65855;SDS011;52631;42.208;24.656;2023-04-16T07:19:31;6.45;;;2.58;;
65855;SDS011;52631;42.208;24.656;2023-04-16T07:21:57;11.57;;;3.22;;
65855;SDS011;52631;42.208;24.656;2023-04-16T07:24:25;8.75;;;2.83;;
65855;SDS011;52631;42.208;24.656;2023-04-16T07:26:51;7.47;;;2.92;;
65855;SDS011;52631;42.208;24.656;2023-04-16T07:29:17;6.43;;;2.60;;
65855;SDS011;52631;42.208;24.656;2023-04-16T07:31:42;7.93;;;3.22;;
65855;SDS011;52631;42.208;24.656;2023-04-16T07:34:08;10.65;;;3.60;;
65855;SDS011;52631;42.208;24.656;2023-04-16T07:36:34;5.55;;;2.70;;
65855;SDS011;52631;42.208;24.656;2023-04-16T07:39:00;5.93;;;2.65;;
65855;SDS011;52631;42.208;24.656;2023-04-16T07:41:25;5.15;;;2.58;;
65855;SDS011;52631;42.208;24.656;2023-04-16T07:43:51;6.03;;;2.78;;
65855;SDS011;52631;42.208;24.656;2023-04-16T07:46:16;5.50;;;2.40;;
65855;SDS011;52631;42.208;24.656;2023-04-16T07:48:42;7.45;;;2.60;;
65855;SDS011;52631;42.208;24.656;2023-04-16T07:51:07;6.97;;;2.30;;
65855;SDS011;52631;42.208;24.656;2023-04-16T07:53:33;5.68;;;2.53;;
65855;SDS011;52631;42.208;24.656;2023-04-16T07:55:58;7.80;;;2.78;;
65855;SDS011;52631;42.208;24.656;2023-04-16T07:58:24;8.52;;;2.70;;
65855;SDS011;52631;42.208;24.656;2023-04-16T08:00:49;6.95;;;2.50;;
65855;SDS011;52631;42.208;24.656;2023-04-16T08:03:15;7.60;;;2.70;;
65855;SDS011;52631;42.208;24.656;2023-04-16T08:05:40;8.60;;;2.50;;
65855;SDS011;52631;42.208;24.656;2023-04-16T08:08:06;5.00;;;2.45;;
65855;SDS011;52631;42.208;24.656;2023-04-16T08:10:31;5.00;;;2.33;;
65855;SDS011;52631;42.208;24.656;2023-04-16T08:12:59;6.63;;;2.70;;
65855;SDS011;52631;42.208;24.656;2023-04-16T08:15:25;6.93;;;2.92;;
65855;SDS011;52631;42.208;24.656;2023-04-16T08:17:50;6.55;;;2.90;;
65855;SDS011;52631;42.208;24.656;2023-04-16T08:20:18;7.60;;;2.83;;
65855;SDS011;52631;42.208;24.656;2023-04-16T08:22:44;6.15;;;3.03;;
65855;SDS011;52631;42.208;24.656;2023-04-16T08:25:10;6.32;;;2.50;;
65855;SDS011;52631;42.208;24.656;2023-04-16T08:27:36;6.40;;;2.88;;
65855;SDS011;52631;42.208;24.656;2023-04-16T08:30:01;6.03;;;2.85;;
65855;SDS011;52631;42.208;24.656;2023-04-16T08:32:27;7.10;;;2.58;;
65855;SDS011;52631;42.208;24.656;2023-04-16T08:34:52;7.47;;;2.55;;
65855;SDS011;52631;42.208;24.656;2023-04-16T08:37:18;5.30;;;2.25;;
65855;SDS011;52631;42.208;24.656;2023-04-16T08:39:44;7.72;;;2.50;;
65855;SDS011;52631;42.208;24.656;2023-04-16T08:42:15;6.90;;;2.05;;
65855;SDS011;52631;42.208;24.656;2023-04-16T08:44:47;5.45;;;2.20;;
65855;SDS011;52631;42.208;24.656;2023-04-16T08:47:14;6.38;;;2.30;;
65855;SDS011;52631;42.208;24.656;2023-04-16T08:49:43;5.85;;;2.30;;
65855;SDS011;52631;42.208;24.656;2023-04-16T08:52:12;4.27;;;2.40;;
65855;SDS011;52631;42.208;24.656;2023-04-16T08:57:46;5.85;;;2.28;;
65855;SDS011;52631;42.208;24.656;2023-04-16T09:00:13;4.22;;;2.15;;
65855;SDS011;52631;42.208;24.656;2023-04-16T09:02:40;4.28;;;2.53;;
65855;SDS011;52631;42.208;24.656;2023-04-16T09:05:06;5.45;;;2.30;;
65855;SDS011;52631;42.208;24.656;2023-04-16T09:07:36;5.38;;;2.53;;
65855;SDS011;52631;42.208;24.656;2023-04-16T09:10:02;5.72;;;2.50;;
65855;SDS011;52631;42.208;24.656;2023-04-16T09:12:28;5.82;;;2.60;;
65855;SDS011;52631;42.208;24.656;2023-04-16T09:14:54;7.93;;;2.78;;
65855;SDS011;52631;42.208;24.656;2023-04-16T09:17:21;18.15;;;3.63;;
65855;SDS011;52631;42.208;24.656;2023-04-16T09:19:46;5.47;;;2.72;;
65855;SDS011;52631;42.208;24.656;2023-04-16T09:22:12;6.70;;;2.50;;
65855;SDS011;52631;42.208;24.656;2023-04-16T09:24:39;5.78;;;2.25;;
65855;SDS011;52631;42.208;24.656;2023-04-16T09:27:06;4.85;;;2.33;;
65855;SDS011;52631;42.208;24.656;2023-04-16T09:29:35;12.30;;;3.05;;
65855;SDS011;52631;42.208;24.656;2023-04-16T09:32:05;6.50;;;3.22;;
65855;SDS011;52631;42.208;24.656;2023-04-16T09:34:32;9.82;;;2.90;;
65855;SDS011;52631;42.208;24.656;2023-04-16T09:37:14;8.80;;;2.40;;
65855;SDS011;52631;42.208;24.656;2023-04-16T09:39:43;5.90;;;2.13;;
65855;SDS011;52631;42.208;24.656;2023-04-16T09:42:09;6.85;;;1.90;;
65855;SDS011;52631;42.208;24.656;2023-04-16T09:44:35;5.95;;;2.13;;
65855;SDS011;52631;42.208;24.656;2023-04-16T09:47:05;4.78;;;1.52;;
65855;SDS011;52631;42.208;24.656;2023-04-16T09:49:36;4.13;;;1.55;;
65855;SDS011;52631;42.208;24.656;2023-04-16T09:52:08;4.65;;;1.70;;
65855;SDS011;52631;42.208;24.656;2023-04-16T09:54:39;5.97;;;1.80;;
65855;SDS011;52631;42.208;24.656;2023-04-16T09:57:10;7.43;;;2.88;;
65855;SDS011;52631;42.208;24.656;2023-04-16T09:59:36;5.75;;;2.60;;
65855;SDS011;52631;42.208;24.656;2023-04-16T10:02:02;6.03;;;2.22;;
65855;SDS011;52631;42.208;24.656;2023-04-16T10:04:27;3.80;;;1.63;;
65855;SDS011;52631;42.208;24.656;2023-04-16T10:07:02;5.00;;;1.90;;
65855;SDS011;52631;42.208;24.656;2023-04-16T10:09:37;5.97;;;1.90;;
65855;SDS011;52631;42.208;24.656;2023-04-16T10:12:03;7.88;;;2.10;;
65855;SDS011;52631;42.208;24.656;2023-04-16T10:14:30;9.73;;;1.90;;
65855;SDS011;52631;42.208;24.656;2023-04-16T10:16:55;4.80;;;1.40;;
65855;SDS011;52631;42.208;24.656;2023-04-16T10:19:22;3.05;;;1.50;;
65855;SDS011;52631;42.208;24.656;2023-04-16T10:21:50;4.55;;;1.50;;
65855;SDS011;52631;42.208;24.656;2023-04-16T10:24:15;3.63;;;1.52;;
65855;SDS011;52631;42.208;24.656;2023-04-16T10:26:43;6.40;;;1.60;;
65855;SDS011;52631;42.208;24.656;2023-04-16T10:29:08;10.45;;;1.65;;
65855;SDS011;52631;42.208;24.656;2023-04-16T10:31:36;7.22;;;1.70;;
65855;SDS011;52631;42.208;24.656;2023-04-16T10:34:03;7.57;;;1.88;;
65855;SDS011;52631;42.208;24.656;2023-04-16T10:36:34;4.28;;;1.70;;
65855;SDS011;52631;42.208;24.656;2023-04-16T10:39:00;4.22;;;1.65;;
65855;SDS011;52631;42.208;24.656;2023-04-16T10:41:26;5.45;;;1.73;;
65855;SDS011;52631;42.208;24.656;2023-04-16T10:43:52;4.95;;;1.80;;
65855;SDS011;52631;42.208;24.656;2023-04-16T10:46:33;5.30;;;1.60;;
65855;SDS011;52631;42.208;24.656;2023-04-16T10:48:59;7.75;;;2.30;;
65855;SDS011;52631;42.208;24.656;2023-04-16T10:51:32;5.07;;;1.90;;
65855;SDS011;52631;42.208;24.656;2023-04-16T10:54:03;5.97;;;1.98;;
65855;SDS011;52631;42.208;24.656;2023-04-16T10:56:44;4.22;;;1.73;;
65855;SDS011;52631;42.208;24.656;2023-04-16T10:59:10;4.18;;;1.80;;
65855;SDS011;52631;42.208;24.656;2023-04-16T11:01:38;5.55;;;2.00;;
65855;SDS011;52631;42.208;24.656;2023-04-16T11:09:43;5.13;;;2.00;;
65855;SDS011;52631;42.208;24.656;2023-04-16T11:12:31;8.50;;;2.15;;
65855;SDS011;52631;42.208;24.656;2023-04-16T11:15:05;6.13;;;2.17;;
65855;SDS011;52631;42.208;24.656;2023-04-16T11:20:04;8.85;;;2.20;;
65855;SDS011;52631;42.208;24.656;2023-04-16T11:22:32;8.50;;;2.00;;
65855;SDS011;52631;42.208;24.656;2023-04-16T11:24:59;4.43;;;1.98;;
65855;SDS011;52631;42.208;24.656;2023-04-16T11:27:24;8.27;;;2.67;;
65855;SDS011;52631;42.208;24.656;2023-04-16T11:30:00;12.52;;;2.22;;
65855;SDS011;52631;42.208;24.656;2023-04-16T11:32:30;5.95;;;2.33;;
65855;SDS011;52631;42.208;24.656;2023-04-16T11:34:56;6.13;;;1.88;;
65855;SDS011;52631;42.208;24.656;2023-04-16T11:37:35;6.97;;;2.35;;
65855;SDS011;52631;42.208;24.656;2023-04-16T11:40:05;11.02;;;2.38;;
65855;SDS011;52631;42.208;24.656;2023-04-16T11:42:35;5.25;;;2.53;;
65855;SDS011;52631;42.208;24.656;2023-04-16T11:45:05;8.07;;;2.50;;
65855;SDS011;52631;42.208;24.656;2023-04-16T11:47:48;9.90;;;2.33;;
65855;SDS011;52631;42.208;24.656;2023-04-16T11:50:26;5.20;;;2.50;;
65855;SDS011;52631;42.208;24.656;2023-04-16T11:52:55;5.63;;;2.38;;
65855;SDS011;52631;42.208;24.656;2023-04-16T11:55:22;8.10;;;2.70;;
65855;SDS011;52631;42.208;24.656;2023-04-16T11:57:48;8.02;;;2.58;;
65855;SDS011;52631;42.208;24.656;2023-04-16T12:00:14;5.50;;;2.70;;
65855;SDS011;52631;42.208;24.656;2023-04-16T12:02:41;7.20;;;3.00;;
65855;SDS011;52631;42.208;24.656;2023-04-16T12:05:25;10.55;;;4.05;;
65855;SDS011;52631;42.208;24.656;2023-04-16T12:07:54;9.40;;;3.00;;
65855;SDS011;52631;42.208;24.656;2023-04-16T12:10:20;9.23;;;3.10;;
65855;SDS011;52631;42.208;24.656;2023-04-16T12:12:45;9.73;;;2.83;;
65855;SDS011;52631;42.208;24.656;2023-04-16T12:15:11;7.00;;;3.20;;
65855;SDS011;52631;42.208;24.656;2023-04-16T12:17:37;8.98;;;3.15;;
65855;SDS011;52631;42.208;24.656;2023-04-16T12:20:03;10.52;;;3.55;;
65855;SDS011;52631;42.208;24.656;2023-04-16T12:22:37;12.13;;;2.85;;
65855;SDS011;52631;42.208;24.656;2023-04-16T12:25:10;10.38;;;2.47;;
65855;SDS011;52631;42.208;24.656;2023-04-16T12:30:16;7.25;;;2.80;;
65855;SDS011;52631;42.208;24.656;2023-04-16T12:32:47;10.10;;;2.72;;
65855;SDS011;52631;42.208;24.656;2023-04-16T12:35:13;9.05;;;2.70;;
65855;SDS011;52631;42.208;24.656;2023-04-16T12:37:56;7.13;;;2.60;;
65855;SDS011;52631;42.208;24.656;2023-04-16T12:40:21;9.95;;;2.53;;
65855;SDS011;52631;42.208;24.656;2023-04-16T12:42:47;6.47;;;2.70;;
65855;SDS011;52631;42.208;24.656;2023-04-16T12:45:12;6.30;;;2.55;;
65855;SDS011;52631;42.208;24.656;2023-04-16T12:47:38;4.22;;;2.30;;
65855;SDS011;52631;42.208;24.656;2023-04-16T12:50:03;6.57;;;2.80;;
65855;SDS011;52631;42.208;24.656;2023-04-16T12:52:29;11.00;;;2.90;;
65855;SDS011;52631;42.208;24.656;2023-04-16T12:54:55;11.88;;;3.17;;
65855;SDS011;52631;42.208;24.656;2023-04-16T12:57:20;9.00;;;2.85;;
65855;SDS011;52631;42.208;24.656;2023-04-16T12:59:52;12.20;;;2.92;;
65855;SDS011;52631;42.208;24.656;2023-04-16T13:02:21;7.80;;;2.42;;
65855;SDS011;52631;42.208;24.656;2023-04-16T13:04:47;8.73;;;2.55;;
65855;SDS011;52631;42.208;24.656;2023-04-16T13:07:13;9.23;;;2.60;;
65855;SDS011;52631;42.208;24.656;2023-04-16T13:09:39;6.50;;;2.85;;
65855;SDS011;52631;42.208;24.656;2023-04-16T13:12:05;5.28;;;2.25;;
65855;SDS011;52631;42.208;24.656;2023-04-16T13:14:31;6.28;;;1.80;;
65855;SDS011;52631;42.208;24.656;2023-04-16T13:16:56;5.32;;;1.77;;
65855;SDS011;52631;42.208;24.656;2023-04-16T13:19:22;3.55;;;1.30;;
65855;SDS011;52631;42.208;24.656;2023-04-16T13:21:48;4.32;;;1.30;;
65855;SDS011;52631;42.208;24.656;2023-04-16T13:24:13;3.78;;;1.27;;
65855;SDS011;52631;42.208;24.656;2023-04-16T13:26:39;3.38;;;1.20;;
65855;SDS011;52631;42.208;24.656;2023-04-16T13:29:04;2.60;;;1.20;;
65855;SDS011;52631;42.208;24.656;2023-04-16T13:31:30;3.20;;;1.40;;
65855;SDS011;52631;42.208;24.656;2023-04-16T13:33:55;3.83;;;1.30;;
65855;SDS011;52631;42.208;24.656;2023-04-16T13:36:21;3.22;;;1.35;;
65855;SDS011;52631;42.208;24.656;2023-04-16T13:38:47;3.95;;;1.50;;
65855;SDS011;52631;42.208;24.656;2023-04-16T13:41:13;3.47;;;1.20;;
65855;SDS011;52631;42.208;24.656;2023-04-16T13:43:38;7.68;;;1.52;;
65855;SDS011;52631;42.208;24.656;2023-04-16T13:46:05;4.88;;;1.40;;
65855;SDS011;52631;42.208;24.656;2023-04-16T13:48:31;3.75;;;1.30;;
65855;SDS011;52631;42.208;24.656;2023-04-16T13:50:56;2.45;;;1.10;;
65855;SDS011;52631;42.208;24.656;2023-04-16T13:53:22;5.25;;;1.10;;
65855;SDS011;52631;42.208;24.656;2023-04-16T13:55:47;3.28;;;1.00;;
65855;SDS011;52631;42.208;24.656;2023-04-16T13:58:13;2.10;;;0.98;;
65855;SDS011;52631;42.208;24.656;2023-04-16T14:00:40;2.55;;;1.00;;
65855;SDS011;52631;42.208;24.656;2023-04-16T14:03:08;1.63;;;0.73;;
65855;SDS011;52631;42.208;24.656;2023-04-16T14:05:33;3.63;;;1.00;;
65855;SDS011;52631;42.208;24.656;2023-04-16T14:07:58;5.45;;;1.15;;
65855;SDS011;52631;42.208;24.656;2023-04-16T14:10:24;3.38;;;1.40;;
65855;SDS011;52631;42.208;24.656;2023-04-16T14:12:50;6.13;;;1.88;;
65855;SDS011;52631;42.208;24.656;2023-04-16T14:15:16;6.20;;;1.90;;
65855;SDS011;52631;42.208;24.656;2023-04-16T14:17:42;8.00;;;2.40;;
65855;SDS011;52631;42.208;24.656;2023-04-16T14:20:11;5.38;;;2.10;;
65855;SDS011;52631;42.208;24.656;2023-04-16T14:22:37;4.82;;;2.17;;
65855;SDS011;52631;42.208;24.656;2023-04-16T14:25:04;5.70;;;2.25;;
65855;SDS011;52631;42.208;24.656;2023-04-16T14:27:30;5.93;;;2.20;;
65855;SDS011;52631;42.208;24.656;2023-04-16T14:29:56;5.80;;;2.70;;
65855;SDS011;52631;42.208;24.656;2023-04-16T14:32:25;6.70;;;2.42;;
65855;SDS011;52631;42.208;24.656;2023-04-16T14:34:51;7.10;;;2.67;;
65855;SDS011;52631;42.208;24.656;2023-04-16T14:37:16;5.85;;;2.25;;
65855;SDS011;52631;42.208;24.656;2023-04-16T14:39:42;6.47;;;2.80;;
65855;SDS011;52631;42.208;24.656;2023-04-16T14:42:08;9.80;;;3.60;;
65855;SDS011;52631;42.208;24.656;2023-04-16T14:44:33;7.78;;;2.75;;